Time;durP1;ratioP1;P1;durP2;ratioP2;P2;SDS_P1;SDS_P2;PMS_P1;PMS_P2;Temp;Humidity;BMP_temperature;BMP_pressure;BME280_temperature;BME280_humidity;BME280_pressure;Samples;Min_cycle;Max_cycle;Signal;HPM_P1;HPM_P2
2023/03/24 00:01:54;;;;;;;1.27;1.13;;;18.90;46.30;;;;;;4917709;29;20460;-72
2023/03/24 00:04:20;;;;;;;1.40;1.27;;;18.90;46.30;;;;;;4907971;29;20240;-72
2023/03/24 00:06:48;;;;;;;1.30;1.20;;;18.90;46.30;;;;;;4924405;28;20464;-72
2023/03/24 00:09:15;;;;;;;2.83;1.10;;;18.90;46.30;;;;;;4923753;28;20697;-73
2023/03/24 00:11:41;;;;;;;1.50;1.40;;;18.90;46.30;;;;;;4924255;29;20472;-72
2023/03/24 00:14:11;;;;;;;1.20;1.10;;;18.90;46.30;;;;;;4920901;28;20479;-72
2023/03/24 00:16:41;;;;;;;1.57;1.40;;;18.90;46.30;;;;;;4921873;29;20475;-73
2023/03/24 00:19:08;;;;;;;1.53;1.27;;;18.90;46.30;;;;;;4921085;28;20480;-73
2023/03/24 00:21:33;;;;;;;1.20;1.10;;;18.90;46.30;;;;;;4917674;29;20435;-73
2023/03/24 00:24:00;;;;;;;1.23;1.10;;;18.90;46.40;;;;;;4925953;29;20446;-73
2023/03/24 00:26:27;;;;;;;1.40;1.20;;;18.90;46.40;;;;;;4923827;28;20677;-72
2023/03/24 00:28:53;;;;;;;1.60;1.30;;;18.90;46.40;;;;;;4919169;29;21441;-72
2023/03/24 00:31:19;;;;;;;1.10;1.00;;;18.90;46.40;;;;;;4920193;28;21013;-72
2023/03/24 00:33:49;;;;;;;1.93;1.10;;;18.90;46.30;;;;;;4922327;28;20484;-73
2023/03/24 00:36:18;;;;;;;3.27;1.00;;;18.90;46.30;;;;;;4919811;28;20332;-73
2023/03/24 00:38:44;;;;;;;1.00;0.90;;;18.90;46.40;;;;;;4922627;28;20991;-73
2023/03/24 00:41:09;;;;;;;1.20;1.10;;;18.90;46.40;;;;;;4920808;28;20436;-72
2023/03/24 00:43:35;;;;;;;1.80;1.00;;;18.90;46.40;;;;;;4919437;28;20639;-73
2023/03/24 00:46:06;;;;;;;1.10;1.00;;;18.90;46.40;;;;;;4920358;28;20584;-73
2023/03/24 00:48:32;;;;;;;1.27;1.17;;;18.90;46.40;;;;;;4918087;28;20487;-72
2023/03/24 00:51:01;;;;;;;0.97;0.90;;;18.90;46.40;;;;;;4921824;28;20460;-73
2023/03/24 00:53:30;;;;;;;1.20;1.10;;;18.90;46.40;;;;;;4923049;28;20245;-73
2023/03/24 00:55:57;;;;;;;1.17;1.07;;;18.90;46.40;;;;;;4920847;28;20427;-73
2023/03/24 00:58:23;;;;;;;4.03;1.10;;;18.90;46.40;;;;;;4915729;28;20452;-72
2023/03/24 01:00:52;;;;;;;1.10;0.97;;;18.90;46.40;;;;;;4921297;28;20468;-72
2023/03/24 01:03:21;;;;;;;1.63;1.43;;;18.90;46.40;;;;;;4921734;28;20451;-72
2023/03/24 01:05:47;;;;;;;1.00;0.90;;;18.90;46.40;;;;;;4922734;28;20436;-72
2023/03/24 01:08:19;;;;;;;1.00;0.90;;;18.90;46.40;;;;;;4918368;28;20455;-72
2023/03/24 01:10:49;;;;;;;1.30;1.20;;;18.90;46.50;;;;;;4919332;28;20479;-72
2023/03/24 01:13:20;;;;;;;1.50;1.00;;;18.90;46.50;;;;;;4923876;28;20962;-72
2023/03/24 01:15:46;;;;;;;1.40;1.30;;;18.90;46.50;;;;;;4919125;28;20840;-73
2023/03/24 01:18:13;;;;;;;1.03;0.93;;;18.90;46.40;;;;;;4916059;28;20543;-72
2023/03/24 01:20:44;;;;;;;1.07;0.83;;;18.90;46.40;;;;;;4921085;28;20903;-72
2023/03/24 01:23:13;;;;;;;1.27;1.17;;;18.90;46.50;;;;;;4917107;28;20466;-72
2023/03/24 01:25:41;;;;;;;1.23;1.00;;;18.90;46.50;;;;;;4915947;28;20496;-72
2023/03/24 01:28:06;;;;;;;1.10;1.00;;;18.90;46.50;;;;;;4918745;28;20470;-72
2023/03/24 01:30:32;;;;;;;0.80;0.80;;;18.90;46.50;;;;;;4914872;28;20543;-73
2023/03/24 01:32:58;;;;;;;1.50;1.17;;;18.90;46.50;;;;;;4921487;28;20955;-73
2023/03/24 01:35:25;;;;;;;1.10;1.00;;;18.90;46.50;;;;;;4920005;28;20707;-72
2023/03/24 01:37:51;;;;;;;1.23;1.13;;;18.80;46.40;;;;;;4917073;28;20243;-72
2023/03/24 01:40:26;;;;;;;1.70;1.03;;;18.90;46.50;;;;;;4921106;28;20514;-72
2023/03/24 01:42:52;;;;;;;1.20;1.07;;;18.90;46.50;;;;;;4921627;28;21481;-72
2023/03/24 01:45:39;;;;;;;1.27;1.17;;;18.80;46.40;;;;;;4920058;28;20469;-72
2023/03/24 01:48:24;;;;;;;1.93;1.00;;;18.80;46.40;;;;;;4918645;28;20233;-72
2023/03/24 01:51:10;;;;;;;0.80;0.80;;;18.90;46.50;;;;;;4920274;28;20782;-73
2023/03/24 01:54:11;;;;;;;0.90;0.80;;;18.90;46.50;;;;;;4917517;29;20987;-72
2023/03/24 01:56:41;;;;;;;1.07;0.97;;;18.80;46.40;;;;;;4915164;28;20523;-73
2023/03/24 01:59:16;;;;;;;0.93;0.87;;;18.90;46.50;;;;;;4921280;28;20958;-72
2023/03/24 02:01:42;;;;;;;1.87;1.03;;;18.80;46.40;;;;;;4920192;28;20812;-72
2023/03/24 02:04:08;;;;;;;1.30;0.83;;;18.90;46.50;;;;;;4923275;28;20930;-72
2023/03/24 02:06:39;;;;;;;1.00;0.90;;;18.90;47.30;;;;;;4916993;28;20447;-73
2023/03/24 02:09:06;;;;;;;1.20;1.10;;;18.80;46.40;;;;;;4913952;28;20229;-72
2023/03/24 02:11:34;;;;;;;0.90;0.80;;;18.80;46.40;;;;;;4916551;28;20433;-73
2023/03/24 02:14:00;;;;;;;1.20;1.00;;;18.80;46.40;;;;;;4919948;28;20443;-72
2023/03/24 02:16:37;;;;;;;2.50;1.20;;;18.90;46.50;;;;;;4917549;29;20435;-72
2023/03/24 02:19:22;;;;;;;1.00;0.90;;;18.90;46.50;;;;;;4918906;28;20478;-72
2023/03/24 02:22:13;;;;;;;1.10;1.00;;;18.80;47.20;;;;;;4918620;28;20438;-72
2023/03/24 02:24:50;;;;;;;1.50;1.00;;;18.90;46.50;;;;;;4921141;28;20958;-73
2023/03/24 02:27:41;;;;;;;1.10;1.00;;;18.90;46.50;;;;;;4920753;28;20495;-73
2023/03/24 02:30:18;;;;;;;1.00;0.90;;;18.80;46.40;;;;;;4914866;28;20522;-72
2023/03/24 02:33:12;;;;;;;1.00;0.90;;;18.90;46.50;;;;;;4916414;28;21107;-72
2023/03/24 02:36:06;;;;;;;1.10;1.00;;;18.80;46.40;;;;;;4921104;28;20434;-73
2023/03/24 02:39:08;;;;;;;1.40;1.00;;;18.80;46.40;;;;;;4923696;28;20514;-73
2023/03/24 02:41:58;;;;;;;0.97;0.90;;;18.80;46.40;;;;;;4921430;28;20458;-72
2023/03/24 02:44:44;;;;;;;0.80;0.80;;;18.80;46.50;;;;;;4925730;28;20594;-72
2023/03/24 02:47:37;;;;;;;0.80;0.80;;;18.80;46.40;;;;;;4907858;29;21245;-72
2023/03/24 02:50:19;;;;;;;0.93;0.83;;;18.80;46.40;;;;;;4898838;29;23307;-72
2023/03/24 02:52:51;;;;;;;0.90;0.90;;;18.80;46.40;;;;;;4921576;28;20873;-72
2023/03/24 02:55:27;;;;;;;1.20;0.90;;;18.80;46.40;;;;;;4923513;29;20452;-72
2023/03/24 02:58:01;;;;;;;0.97;0.90;;;18.80;46.50;;;;;;4924661;29;20467;-72
2023/03/24 03:00:49;;;;;;;1.10;1.00;;;18.80;46.50;;;;;;4919449;28;21061;-72
2023/03/24 03:03:26;;;;;;;1.63;1.53;;;18.80;46.50;;;;;;4922092;28;20455;-72
2023/03/24 03:06:01;;;;;;;1.47;0.80;;;18.80;46.50;;;;;;4927103;28;20486;-73
2023/03/24 03:08:32;;;;;;;0.80;0.80;;;18.80;46.60;;;;;;4925276;28;20452;-72
2023/03/24 03:11:00;;;;;;;1.03;0.80;;;18.80;46.50;;;;;;4918552;29;20996;-72
2023/03/24 03:13:39;;;;;;;0.93;0.83;;;18.80;46.50;;;;;;4925101;28;20613;-73
2023/03/24 03:16:13;;;;;;;1.27;0.90;;;18.80;46.40;;;;;;4921618;29;20564;-72
2023/03/24 03:18:50;;;;;;;1.00;0.87;;;18.80;46.50;;;;;;4921855;28;20551;-72
2023/03/24 03:21:21;;;;;;;1.10;1.00;;;18.80;46.50;;;;;;4916456;28;20978;-73
2023/03/24 03:24:09;;;;;;;1.17;1.00;;;18.80;46.50;;;;;;4924148;28;20491;-73
2023/03/24 03:26:36;;;;;;;1.37;0.90;;;18.80;46.50;;;;;;4923937;28;20450;-72
2023/03/24 03:29:15;;;;;;;1.00;0.90;;;18.80;46.50;;;;;;4927225;28;20980;-72
2023/03/24 03:31:50;;;;;;;1.20;1.00;;;18.80;46.50;;;;;;4922148;29;20551;-72
2023/03/24 03:34:32;;;;;;;1.17;1.07;;;18.80;46.50;;;;;;4919552;29;20539;-72
2023/03/24 03:37:21;;;;;;;1.60;0.90;;;18.80;46.50;;;;;;4920871;28;20594;-73
2023/03/24 03:39:57;;;;;;;0.93;0.83;;;18.80;46.50;;;;;;4919438;28;20432;-72
2023/03/24 03:42:23;;;;;;;0.93;0.80;;;18.80;46.50;;;;;;4900249;29;20451;-72
2023/03/24 03:44:49;;;;;;;0.97;0.90;;;18.80;46.60;;;;;;4923038;28;20965;-73
2023/03/24 03:47:15;;;;;;;1.13;0.87;;;18.80;46.50;;;;;;4922345;28;20447;-72
2023/03/24 03:49:42;;;;;;;1.00;0.90;;;18.80;46.50;;;;;;4923521;28;20421;-73
2023/03/24 03:52:08;;;;;;;1.00;0.90;;;18.80;46.50;;;;;;4925687;28;20376;-73
2023/03/24 03:54:34;;;;;;;1.03;0.83;;;18.80;46.50;;;;;;4921391;28;20911;-72
2023/03/24 03:57:00;;;;;;;1.07;0.97;;;18.80;46.60;;;;;;4923453;28;20236;-72
2023/03/24 03:59:34;;;;;;;1.00;0.90;;;18.80;46.50;;;;;;4920441;28;20949;-72
2023/03/24 04:02:29;;;;;;;1.10;1.00;;;18.80;46.60;;;;;;4918832;28;20691;-72
2023/03/24 04:05:12;;;;;;;0.80;0.80;;;18.80;46.50;;;;;;4918352;28;20432;-73
2023/03/24 04:08:10;;;;;;;0.90;0.80;;;18.80;46.60;;;;;;4925634;28;20491;-72
2023/03/24 04:10:48;;;;;;;0.90;0.90;;;18.80;46.50;;;;;;4923619;28;20981;-72
2023/03/24 04:13:31;;;;;;;1.00;0.90;;;18.80;46.50;;;;;;4920649;28;21017;-73
2023/03/24 04:16:10;;;;;;;1.07;0.97;;;18.80;46.60;;;;;;4919000;28;20830;-72
2023/03/24 04:19:01;;;;;;;1.37;0.87;;;18.80;46.70;;;;;;4923023;28;20449;-72
2023/03/24 04:21:47;;;;;;;0.80;0.80;;;18.80;46.60;;;;;;4921866;28;20450;-73
2023/03/24 04:24:53;;;;;;;0.80;0.80;;;18.70;46.60;;;;;;4918810;28;20966;-72
2023/03/24 04:27:49;;;;;;;0.87;0.87;;;18.70;46.60;;;;;;4919664;28;20978;-72
2023/03/24 04:30:22;;;;;;;1.10;1.00;;;18.80;46.70;;;;;;4920921;28;21862;-72
2023/03/24 04:33:16;;;;;;;0.97;0.87;;;18.70;46.60;;;;;;4925539;28;20938;-72
2023/03/24 04:35:48;;;;;;;0.90;0.90;;;18.70;46.60;;;;;;4917301;28;20479;-72
2023/03/24 04:38:21;;;;;;;1.00;0.90;;;18.70;46.70;;;;;;4924562;29;21285;-72
2023/03/24 04:40:49;;;;;;;0.90;0.90;;;18.70;46.60;;;;;;4920012;29;20448;-72
2023/03/24 04:43:19;;;;;;;1.00;0.90;;;18.80;46.70;;;;;;4924519;28;20473;-72
2023/03/24 04:45:48;;;;;;;1.00;0.90;;;18.70;46.60;;;;;;4915129;28;20468;-72
2023/03/24 04:48:16;;;;;;;0.80;0.80;;;18.70;46.60;;;;;;4923044;29;20465;-72
2023/03/24 04:50:46;;;;;;;1.13;1.03;;;18.80;46.60;;;;;;4917071;28;20444;-72
2023/03/24 04:53:12;;;;;;;0.80;0.70;;;18.70;46.50;;;;;;4922187;28;20588;-72
2023/03/24 04:56:03;;;;;;;0.87;0.87;;;18.80;46.60;;;;;;4921178;28;20554;-72
2023/03/24 04:58:29;;;;;;;1.20;0.77;;;18.80;46.60;;;;;;4907460;29;20228;-72
2023/03/24 05:00:55;;;;;;;0.80;0.80;;;18.80;46.60;;;;;;4917186;28;20427;-72
2023/03/24 05:03:21;;;;;;;0.97;0.90;;;18.80;46.50;;;;;;4922578;28;20706;-72
2023/03/24 05:05:48;;;;;;;1.00;0.90;;;18.80;46.50;;;;;;4919122;28;21390;-72
2023/03/24 05:08:16;;;;;;;1.10;0.90;;;18.80;46.60;;;;;;4921937;28;20466;-72
2023/03/24 05:10:42;;;;;;;0.80;0.80;;;18.80;46.50;;;;;;4920178;28;20457;-72
2023/03/24 05:13:07;;;;;;;0.90;0.80;;;18.80;46.60;;;;;;4919802;28;20478;-71
2023/03/24 05:15:34;;;;;;;0.70;0.70;;;18.80;46.60;;;;;;4912592;28;20420;-71
2023/03/24 05:18:01;;;;;;;1.00;0.90;;;18.80;46.50;;;;;;4920219;29;20245;-71
2023/03/24 05:20:27;;;;;;;0.90;0.80;;;18.80;46.50;;;;;;4914832;28;20434;-72
2023/03/24 05:22:52;;;;;;;1.00;0.90;;;18.80;46.50;;;;;;4922431;29;20980;-72
2023/03/24 05:25:19;;;;;;;0.87;0.87;;;18.90;46.60;;;;;;4921251;28;20443;-72
2023/03/24 05:27:45;;;;;;;0.80;0.80;;;18.80;46.40;;;;;;4910574;29;20225;-72
2023/03/24 05:30:13;;;;;;;0.87;0.80;;;18.90;46.40;;;;;;4913234;29;20738;-72
2023/03/24 05:32:39;;;;;;;1.40;0.80;;;18.90;46.40;;;;;;4897389;29;20458;-74
2023/03/24 05:35:06;;;;;;;1.10;1.00;;;18.90;46.40;;;;;;4918499;29;20432;-74
2023/03/24 05:37:31;;;;;;;0.80;0.80;;;18.90;46.50;;;;;;4909010;28;20256;-73
2023/03/24 05:39:57;;;;;;;1.17;1.07;;;18.90;46.40;;;;;;4913106;28;20795;-75
2023/03/24 05:42:23;;;;;;;1.10;1.00;;;18.90;46.50;;;;;;4913139;28;20300;-71
2023/03/24 05:44:48;;;;;;;1.30;1.20;;;18.90;46.50;;;;;;4909051;28;20230;-71
2023/03/24 05:47:15;;;;;;;0.87;0.87;;;18.90;46.50;;;;;;4914160;28;20237;-71
2023/03/24 05:49:43;;;;;;;0.90;0.90;;;18.90;46.50;;;;;;4919424;28;20225;-71
2023/03/24 05:52:09;;;;;;;0.90;0.90;;;18.90;46.50;;;;;;4911989;28;20475;-71
2023/03/24 05:54:35;;;;;;;0.80;0.80;;;18.90;46.40;;;;;;4919821;28;20965;-71
2023/03/24 05:57:01;;;;;;;0.90;0.90;;;18.90;46.50;;;;;;4912842;28;20457;-72
2023/03/24 05:59:28;;;;;;;1.00;0.90;;;18.90;46.50;;;;;;4904672;28;20234;-72
2023/03/24 06:01:57;;;;;;;1.10;0.90;;;18.90;46.50;;;;;;4907720;28;20470;-72
2023/03/24 06:04:23;;;;;;;1.00;0.90;;;18.90;46.50;;;;;;4918083;28;20470;-71
2023/03/24 06:06:48;;;;;;;1.10;1.00;;;18.90;46.50;;;;;;4911791;29;20453;-74
2023/03/24 06:09:15;;;;;;;0.90;0.90;;;18.90;46.50;;;;;;4915487;28;20218;-72
2023/03/24 06:11:42;;;;;;;0.90;0.90;;;18.90;46.50;;;;;;4916838;28;20244;-72
2023/03/24 06:14:07;;;;;;;1.40;1.00;;;18.90;46.50;;;;;;4918521;28;20461;-72
2023/03/24 06:16:37;;;;;;;1.27;1.10;;;18.90;46.60;;;;;;4921457;28;20489;-76
2023/03/24 06:19:03;;;;;;;1.53;0.90;;;18.90;46.50;;;;;;4910521;28;20229;-72
2023/03/24 06:21:29;;;;;;;0.80;0.80;;;18.90;46.50;;;;;;4923524;28;20446;-72
2023/03/24 06:23:57;;;;;;;0.80;0.80;;;18.90;46.50;;;;;;4919893;29;20765;-73
2023/03/24 06:26:23;;;;;;;0.90;0.77;;;18.90;46.60;;;;;;4917851;28;20524;-71
2023/03/24 06:28:50;;;;;;;1.47;1.00;;;18.90;46.60;;;;;;4914763;28;20491;-73
2023/03/24 06:31:20;;;;;;;1.83;0.90;;;18.90;46.50;;;;;;4916037;28;20722;-72
2023/03/24 06:33:50;;;;;;;0.97;0.97;;;18.90;46.50;;;;;;4916694;28;20461;-73
2023/03/24 06:36:17;;;;;;;1.40;0.93;;;18.90;46.50;;;;;;4917730;28;20472;-72
2023/03/24 06:38:43;;;;;;;1.20;0.80;;;18.90;46.50;;;;;;4916900;28;21042;-72
2023/03/24 06:41:09;;;;;;;1.00;0.90;;;18.90;46.50;;;;;;4917097;29;20439;-72
2023/03/24 06:43:34;;;;;;;0.87;0.87;;;18.90;46.60;;;;;;4911801;28;20973;-71
2023/03/24 06:46:00;;;;;;;1.03;0.97;;;18.90;46.60;;;;;;4907752;28;20313;-72
2023/03/24 06:48:26;;;;;;;1.00;0.90;;;18.90;46.50;;;;;;4914083;28;20257;-71
2023/03/24 06:50:53;;;;;;;0.80;0.77;;;18.90;46.50;;;;;;4912694;29;20234;-72
2023/03/24 06:53:22;;;;;;;2.47;0.90;;;18.90;46.50;;;;;;4915079;28;20544;-73
2023/03/24 06:55:48;;;;;;;0.97;0.90;;;18.90;46.50;;;;;;4916194;28;20999;-72
2023/03/24 06:58:15;;;;;;;1.00;0.90;;;18.90;46.50;;;;;;4917705;28;20473;-72
2023/03/24 07:00:41;;;;;;;0.93;0.93;;;18.90;46.50;;;;;;4918152;29;20435;-72
2023/03/24 07:03:07;;;;;;;0.87;0.80;;;18.90;46.50;;;;;;4919422;29;20514;-72
2023/03/24 07:05:40;;;;;;;0.97;0.90;;;18.90;46.60;;;;;;4916897;29;20301;-71
2023/03/24 07:08:05;;;;;;;1.47;1.10;;;18.90;46.50;;;;;;4916594;28;20230;-72
2023/03/24 07:10:31;;;;;;;1.03;0.93;;;18.90;46.50;;;;;;4920784;28;20452;-72
2023/03/24 07:12:58;;;;;;;1.03;0.93;;;18.90;46.50;;;;;;4918503;28;20234;-73
2023/03/24 07:15:24;;;;;;;1.23;1.13;;;18.90;46.50;;;;;;4916389;28;20266;-72
2023/03/24 07:17:49;;;;;;;1.03;0.90;;;18.90;46.50;;;;;;4918972;28;20508;-72
2023/03/24 07:20:15;;;;;;;1.23;1.00;;;18.90;46.50;;;;;;4918061;28;20234;-72
2023/03/24 07:22:41;;;;;;;1.00;0.90;;;18.90;46.50;;;;;;4929812;28;20234;-72
2023/03/24 07:25:06;;;;;;;1.50;0.90;;;18.90;46.50;;;;;;4919224;29;20313;-72
2023/03/24 07:27:33;;;;;;;0.73;0.70;;;18.90;46.50;;;;;;4927188;28;20252;-72
2023/03/24 07:30:00;;;;;;;1.10;0.80;;;18.90;46.50;;;;;;4919624;28;20633;-72
2023/03/24 07:32:29;;;;;;;1.10;0.90;;;18.90;46.50;;;;;;4925267;28;20441;-72
2023/03/24 07:34:56;;;;;;;1.40;1.10;;;18.90;46.50;;;;;;4922312;28;20476;-72
2023/03/24 07:37:21;;;;;;;2.00;0.90;;;18.90;46.50;;;;;;4926377;28;20457;-72
2023/03/24 07:39:47;;;;;;;0.80;0.80;;;18.90;46.50;;;;;;4920323;28;20435;-72
2023/03/24 07:42:13;;;;;;;1.00;0.90;;;18.90;46.50;;;;;;4920598;29;20226;-72
2023/03/24 07:44:38;;;;;;;1.73;1.10;;;18.90;46.50;;;;;;4917478;28;20230;-72
2023/03/24 07:47:04;;;;;;;0.80;0.80;;;18.90;46.50;;;;;;4916108;28;20261;-72
2023/03/24 07:49:30;;;;;;;1.10;0.83;;;18.90;46.50;;;;;;4916814;28;20597;-72
2023/03/24 07:51:57;;;;;;;0.90;0.90;;;18.90;46.50;;;;;;4918806;28;20288;-72
2023/03/24 07:54:23;;;;;;;0.90;0.80;;;18.90;46.50;;;;;;4918413;28;20803;-72
2023/03/24 07:56:49;;;;;;;1.23;0.90;;;18.90;46.50;;;;;;4918657;28;20443;-72
2023/03/24 07:59:16;;;;;;;0.80;0.80;;;18.90;46.50;;;;;;4919078;28;20222;-72
2023/03/24 08:01:42;;;;;;;3.43;1.10;;;18.90;46.50;;;;;;4921884;28;20237;-72
2023/03/24 08:04:10;;;;;;;1.07;0.87;;;18.90;46.50;;;;;;4921876;28;20460;-72
2023/03/24 08:06:36;;;;;;;1.13;1.03;;;18.90;46.50;;;;;;4903965;28;20468;-72
2023/03/24 08:09:02;;;;;;;1.33;1.00;;;18.90;46.50;;;;;;4920190;28;20475;-72
2023/03/24 08:11:27;;;;;;;1.00;0.90;;;18.90;46.50;;;;;;4916693;28;20222;-72
2023/03/24 08:13:53;;;;;;;1.10;0.90;;;18.90;46.50;;;;;;4920689;28;20237;-72
2023/03/24 08:16:18;;;;;;;1.30;1.00;;;19.00;46.60;;;;;;4915414;28;20237;-72
2023/03/24 08:18:45;;;;;;;1.57;1.10;;;18.90;46.50;;;;;;4918965;29;21122;-72
2023/03/24 08:21:10;;;;;;;1.40;1.00;;;18.90;46.50;;;;;;4918881;28;20287;-72
2023/03/24 08:23:36;;;;;;;1.27;1.00;;;18.90;46.50;;;;;;4914264;28;20942;-72
2023/03/24 08:26:02;;;;;;;1.00;0.90;;;18.90;46.40;;;;;;4913722;28;20229;-73
2023/03/24 08:28:27;;;;;;;1.60;1.00;;;19.00;46.60;;;;;;4916071;28;20234;-74
2023/03/24 08:30:53;;;;;;;1.00;0.90;;;19.00;46.60;;;;;;4914809;29;20242;-80
2023/03/24 08:33:18;;;;;;;0.80;0.70;;;18.90;46.40;;;;;;4917072;28;20238;-76
2023/03/24 08:35:45;;;;;;;0.80;0.80;;;18.90;46.50;;;;;;4918050;28;20275;-75
2023/03/24 08:38:11;;;;;;;0.70;0.70;;;19.00;46.50;;;;;;4920807;28;20709;-72
2023/03/24 08:40:38;;;;;;;0.80;0.80;;;19.00;46.50;;;;;;4913713;28;20432;-72
2023/03/24 08:43:09;;;;;;;1.30;0.93;;;19.00;46.50;;;;;;4917509;29;20492;-72
2023/03/24 08:45:35;;;;;;;1.27;1.17;;;19.00;46.40;;;;;;4914293;28;20486;-73
2023/03/24 08:48:03;;;;;;;2.50;0.90;;;19.00;46.40;;;;;;4916442;28;20427;-73
2023/03/24 08:50:33;;;;;;;1.40;0.87;;;19.00;46.80;;;;;;4913584;28;20277;-73
2023/03/24 08:52:59;;;;;;;0.87;0.73;;;19.00;46.30;;;;;;4918900;28;20466;-73
2023/03/24 08:55:26;;;;;;;2.50;0.83;;;19.00;46.20;;;;;;4916470;28;20439;-73
2023/03/24 08:57:52;;;;;;;1.10;1.00;;;19.00;46.20;;;;;;4915135;28;20468;-72
2023/03/24 09:00:19;;;;;;;1.17;0.97;;;19.00;46.30;;;;;;4904254;29;20423;-72
2023/03/24 09:02:48;;;;;;;1.17;1.07;;;19.00;46.20;;;;;;4919610;28;21066;-72
2023/03/24 09:05:14;;;;;;;1.57;1.10;;;19.00;46.20;;;;;;4916757;28;21285;-73
2023/03/24 09:07:41;;;;;;;1.00;0.90;;;19.00;46.20;;;;;;4919953;28;20426;-73
2023/03/24 09:10:08;;;;;;;3.83;0.77;;;19.00;46.20;;;;;;4915102;28;20465;-73
2023/03/24 09:12:36;;;;;;;1.30;0.90;;;19.00;46.20;;;;;;4918785;28;20994;-72
2023/03/24 09:15:03;;;;;;;1.07;0.90;;;19.00;46.20;;;;;;4915485;28;20475;-73
2023/03/24 09:17:28;;;;;;;1.13;0.90;;;19.00;46.20;;;;;;4915529;28;20501;-72
2023/03/24 09:19:54;;;;;;;0.80;0.80;;;19.10;46.20;;;;;;4918279;28;20521;-73
2023/03/24 09:22:20;;;;;;;1.83;0.90;;;19.00;46.20;;;;;;4921270;28;20222;-73
2023/03/24 09:24:47;;;;;;;2.10;0.80;;;19.10;46.30;;;;;;4917802;28;20222;-73
2023/03/24 09:27:16;;;;;;;0.70;0.70;;;19.10;46.30;;;;;;4913722;29;20241;-73
2023/03/24 09:29:42;;;;;;;1.83;0.90;;;19.10;46.30;;;;;;4916259;28;20676;-72
2023/03/24 09:32:08;;;;;;;0.80;0.70;;;19.10;46.40;;;;;;4910812;28;20928;-72
2023/03/24 09:34:37;;;;;;;1.43;1.00;;;19.10;46.30;;;;;;4916718;28;20464;-72
2023/03/24 09:37:03;;;;;;;0.77;0.77;;;19.10;46.40;;;;;;4913779;28;20690;-73
2023/03/24 09:39:29;;;;;;;1.10;1.00;;;19.10;46.30;;;;;;4918491;28;20810;-73
2023/03/24 09:41:54;;;;;;;1.17;0.90;;;19.10;46.40;;;;;;4913276;28;20480;-73
2023/03/24 09:44:32;;;;;;;4.73;0.93;;;19.10;46.40;;;;;;4914757;28;20946;-72
2023/03/24 09:47:20;;;;;;;0.90;0.80;;;19.10;46.30;;;;;;4916424;29;20257;-73
2023/03/24 09:49:47;;;;;;;1.20;0.93;;;19.10;46.40;;;;;;4918383;28;20448;-73
2023/03/24 09:52:18;;;;;;;1.40;1.03;;;19.10;46.40;;;;;;4923145;28;20662;-73
2023/03/24 09:55:01;;;;;;;0.80;0.80;;;19.10;46.50;;;;;;4915556;28;20432;-73
2023/03/24 09:57:41;;;;;;;0.87;0.80;;;19.10;46.40;;;;;;4919018;28;20872;-73
2023/03/24 10:00:26;;;;;;;1.40;0.90;;;19.10;46.40;;;;;;4919184;28;20942;-73
2023/03/24 10:02:53;;;;;;;1.00;0.83;;;19.00;46.30;;;;;;4915924;28;20488;-73
2023/03/24 10:05:27;;;;;;;1.13;0.90;;;19.10;46.40;;;;;;4913784;29;20504;-73
2023/03/24 10:08:05;;;;;;;1.20;0.80;;;19.10;46.50;;;;;;4918999;29;20957;-73
2023/03/24 10:11:00;;;;;;;0.80;0.70;;;19.00;46.30;;;;;;4915033;28;20437;-73
2023/03/24 10:13:42;;;;;;;1.00;0.90;;;19.00;46.30;;;;;;4915388;28;20447;-73
2023/03/24 10:16:34;;;;;;;1.23;1.13;;;19.10;46.40;;;;;;4912543;28;20486;-73
2023/03/24 10:19:24;;;;;;;1.00;0.87;;;19.00;46.30;;;;;;4914659;28;20816;-73
2023/03/24 10:22:12;;;;;;;1.57;0.77;;;19.10;46.40;;;;;;4913794;28;20435;-72
2023/03/24 10:24:50;;;;;;;1.10;0.80;;;19.10;46.40;;;;;;4918925;28;20488;-73
2023/03/24 10:27:37;;;;;;;1.10;0.80;;;19.00;46.30;;;;;;4918677;28;20559;-73
2023/03/24 10:30:26;;;;;;;1.27;0.90;;;19.10;46.40;;;;;;4913853;28;20427;-73
2023/03/24 10:32:53;;;;;;;1.00;0.80;;;19.10;46.40;;;;;;4914324;28;20460;-73
2023/03/24 10:35:30;;;;;;;0.90;0.70;;;19.10;46.40;;;;;;4914667;28;20606;-73
2023/03/24 10:37:59;;;;;;;0.93;0.80;;;19.10;46.30;;;;;;4914487;28;20455;-73
2023/03/24 10:40:30;;;;;;;0.70;0.60;;;19.10;46.40;;;;;;4918154;29;20431;-73
2023/03/24 10:42:58;;;;;;;1.27;1.00;;;19.10;46.40;;;;;;4918358;28;20465;-73
2023/03/24 10:45:31;;;;;;;1.27;0.90;;;19.10;46.40;;;;;;4916300;28;20451;-73
2023/03/24 10:48:00;;;;;;;0.90;0.80;;;19.10;46.30;;;;;;4918928;28;20521;-73
2023/03/24 10:50:28;;;;;;;0.90;0.80;;;19.10;46.30;;;;;;4916225;28;21601;-73
2023/03/24 10:52:54;;;;;;;1.00;0.90;;;19.10;46.40;;;;;;4910319;28;21000;-73
2023/03/24 10:55:27;;;;;;;0.70;0.70;;;19.10;46.40;;;;;;4908377;28;20542;-73
2023/03/24 10:57:56;;;;;;;1.07;0.93;;;19.10;46.40;;;;;;4925726;28;20470;-73
2023/03/24 11:00:35;;;;;;;1.20;1.10;;;19.10;46.40;;;;;;4918617;28;20434;-73
2023/03/24 11:03:10;;;;;;;0.83;0.80;;;19.10;46.30;;;;;;4923595;28;20980;-73
2023/03/24 11:05:37;;;;;;;0.80;0.70;;;19.10;46.30;;;;;;4914311;28;20435;-73
2023/03/24 11:08:25;;;;;;;1.00;0.80;;;19.10;46.40;;;;;;4923225;28;20442;-73
2023/03/24 11:10:51;;;;;;;0.90;0.80;;;19.10;46.30;;;;;;4917113;28;20443;-73
2023/03/24 11:13:25;;;;;;;0.80;0.80;;;19.10;46.30;;;;;;4921253;28;20913;-73
2023/03/24 11:16:10;;;;;;;1.00;0.90;;;19.10;46.30;;;;;;4910018;28;20274;-73
2023/03/24 11:18:37;;;;;;;1.27;1.17;;;19.10;46.30;;;;;;4920106;28;20456;-73
2023/03/24 11:21:05;;;;;;;1.00;0.80;;;19.10;46.40;;;;;;4918985;28;20448;-73
2023/03/24 11:23:38;;;;;;;0.80;0.80;;;19.10;46.30;;;;;;4920331;28;20820;-73
2023/03/24 11:26:08;;;;;;;0.93;0.80;;;19.10;46.30;;;;;;4920060;28;20806;-73
2023/03/24 11:28:44;;;;;;;0.90;0.80;;;19.10;46.30;;;;;;4919258;28;20468;-73
2023/03/24 11:31:17;;;;;;;1.10;0.70;;;19.10;46.30;;;;;;4925718;28;20456;-73
2023/03/24 11:34:15;;;;;;;0.80;0.80;;;19.10;46.30;;;;;;4921858;28;20933;-73
2023/03/24 11:36:56;;;;;;;1.00;0.90;;;19.10;46.30;;;;;;4917929;28;20944;-73
2023/03/24 11:39:23;;;;;;;0.90;0.80;;;19.10;46.30;;;;;;4914948;28;20842;-73
2023/03/24 11:42:01;;;;;;;1.00;0.90;;;19.10;46.30;;;;;;4919929;28;20458;-73
2023/03/24 11:44:31;;;;;;;1.27;0.80;;;19.10;46.30;;;;;;4915407;28;20457;-73
2023/03/24 11:47:01;;;;;;;1.00;0.80;;;19.10;46.30;;;;;;4912580;28;20447;-73
2023/03/24 11:49:31;;;;;;;0.90;0.80;;;19.10;46.30;;;;;;4920325;28;20487;-73
2023/03/24 11:51:57;;;;;;;1.10;0.90;;;19.10;46.30;;;;;;4919730;28;20458;-73
2023/03/24 11:54:28;;;;;;;0.80;0.80;;;19.10;46.30;;;;;;4917967;28;20483;-73
2023/03/24 11:56:59;;;;;;;1.00;0.80;;;19.10;46.30;;;;;;4916343;28;20222;-73
2023/03/24 11:59:46;;;;;;;1.17;0.87;;;19.10;46.40;;;;;;4916861;28;20492;-73
2023/03/24 12:02:49;;;;;;;0.80;0.70;;;19.10;46.40;;;;;;4919453;28;20561;-73
2023/03/24 12:05:29;;;;;;;0.77;0.77;;;19.10;46.30;;;;;;4919029;28;20431;-73
2023/03/24 12:08:03;;;;;;;1.40;1.10;;;19.10;46.30;;;;;;4915179;28;20472;-73
2023/03/24 12:11:06;;;;;;;1.07;0.97;;;19.10;46.30;;;;;;4913441;28;20508;-73
2023/03/24 12:13:35;;;;;;;1.10;0.80;;;19.10;46.30;;;;;;4913708;28;20459;-73
2023/03/24 12:16:18;;;;;;;0.80;0.70;;;19.10;46.40;;;;;;4916559;28;20441;-73
2023/03/24 12:18:53;;;;;;;1.53;0.90;;;19.10;46.30;;;;;;4918447;28;21022;-74
2023/03/24 12:21:23;;;;;;;1.10;1.00;;;19.10;46.30;;;;;;4916268;28;20424;-73
2023/03/24 12:24:18;;;;;;;0.90;0.80;;;19.10;46.30;;;;;;4918207;28;20464;-73
2023/03/24 12:26:43;;;;;;;1.03;0.80;;;19.10;46.30;;;;;;4918851;28;20782;-73
2023/03/24 12:29:53;;;;;;;1.10;0.93;;;19.10;46.30;;;;;;4915741;28;20439;-73
2023/03/24 12:32:46;;;;;;;0.87;0.70;;;19.10;46.40;;;;;;4861463;29;20239;-73
2023/03/24 12:35:20;;;;;;;1.43;1.33;;;19.10;46.30;;;;;;4862554;29;20462;-73
2023/03/24 12:38:06;;;;;;;2.90;0.80;;;19.10;46.20;;;;;;4898082;28;20468;-73
2023/03/24 12:40:38;;;;;;;1.10;0.80;;;19.10;46.20;;;;;;4912203;28;20964;-73
2023/03/24 12:43:11;;;;;;;0.80;0.80;;;19.10;46.30;;;;;;4911596;28;20451;-73
2023/03/24 12:45:52;;;;;;;1.07;0.90;;;19.10;46.30;;;;;;4913563;28;20464;-72
2023/03/24 12:48:42;;;;;;;0.80;0.60;;;19.10;46.30;;;;;;4915130;28;20807;-71
2023/03/24 12:51:24;;;;;;;1.40;0.90;;;19.10;46.30;;;;;;4918645;28;20438;-73
2023/03/24 12:54:14;;;;;;;0.77;0.70;;;19.10;46.30;;;;;;4910428;29;20455;-73
2023/03/24 12:57:07;;;;;;;1.20;1.10;;;19.00;46.10;;;;;;4916202;28;20461;-72
2023/03/24 12:59:39;;;;;;;1.00;0.90;;;19.00;46.20;;;;;;4900346;28;21481;-73
2023/03/24 13:02:28;;;;;;;1.47;0.77;;;19.00;46.20;;;;;;4918066;28;21434;-73
2023/03/24 13:05:03;;;;;;;1.07;0.77;;;19.10;46.30;;;;;;4914571;28;20619;-72
2023/03/24 13:07:34;;;;;;;1.17;0.80;;;19.00;46.20;;;;;;4916959;28;20576;-78
2023/03/24 13:10:06;;;;;;;0.77;0.77;;;19.10;46.30;;;;;;4914223;29;20443;-75
2023/03/24 13:12:44;;;;;;;0.90;0.80;;;19.10;46.30;;;;;;4910992;28;20484;-73
2023/03/24 13:15:16;;;;;;;0.77;0.77;;;19.10;46.30;;;;;;4909437;28;20451;-73